Time;durP1;ratioP1;P1;durP2;ratioP2;P2;SDS_P1;SDS_P2;PMS_P1;PMS_P2;Temp;Humidity;BMP_temperature;BMP_pressure;BME280_temperature;BME280_humidity;BME280_pressure;Samples;Min_cycle;Max_cycle;Signal;HPM_P1;HPM_P2
2021/05/28 00:00:59;;;;;;;1.20;0.97;;;12.20;98.00;;;;;;5049121;28;20457;-69
2021/05/28 00:03:25;;;;;;;1.73;1.33;;;12.30;98.00;;;;;;5048673;28;20533;-70
2021/05/28 00:05:52;;;;;;;1.47;1.37;;;12.30;98.00;;;;;;5050846;28;21152;-70
2021/05/28 00:08:19;;;;;;;2.17;1.23;;;12.30;98.00;;;;;;5047301;28;20465;-71
2021/05/28 00:10:45;;;;;;;2.30;1.37;;;12.20;98.00;;;;;;5050835;28;20881;-70
2021/05/28 00:13:12;;;;;;;1.60;1.13;;;12.20;98.00;;;;;;5048949;28;20486;-69
2021/05/28 00:15:40;;;;;;;1.50;1.27;;;12.00;98.00;;;;;;5050819;28;20489;-69
2021/05/28 00:18:08;;;;;;;1.60;1.23;;;12.00;98.00;;;;;;5048997;28;20519;-71
2021/05/28 00:20:35;;;;;;;1.30;1.10;;;11.80;98.00;;;;;;5050586;28;20456;-70
2021/05/28 00:23:02;;;;;;;1.40;1.10;;;11.60;98.00;;;;;;5048607;28;20521;-70
2021/05/28 00:25:29;;;;;;;1.20;0.90;;;11.60;98.00;;;;;;5050752;28;20488;-70
2021/05/28 00:27:55;;;;;;;1.63;1.60;;;11.70;98.00;;;;;;5048674;28;20541;-70
2021/05/28 00:30:23;;;;;;;1.37;1.10;;;11.70;98.00;;;;;;5050398;28;20465;-69
2021/05/28 00:32:50;;;;;;;1.50;1.43;;;11.60;98.00;;;;;;5048665;28;20544;-69
2021/05/28 00:35:17;;;;;;;1.27;1.27;;;11.50;98.00;;;;;;5050550;28;20461;-70
2021/05/28 00:37:44;;;;;;;1.60;1.30;;;11.60;98.00;;;;;;5048430;28;20798;-69
2021/05/28 00:40:12;;;;;;;1.20;1.00;;;11.60;98.00;;;;;;5050504;28;20464;-70
2021/05/28 00:42:38;;;;;;;1.47;1.10;;;11.70;98.00;;;;;;5048418;28;20496;-69
2021/05/28 00:45:06;;;;;;;1.20;1.00;;;11.80;98.00;;;;;;5050389;28;20454;-70
2021/05/28 00:47:34;;;;;;;3.60;1.50;;;11.90;98.00;;;;;;5048463;28;20875;-70
2021/05/28 00:50:01;;;;;;;1.70;1.10;;;12.00;98.00;;;;;;5050386;28;20851;-70
2021/05/28 00:52:27;;;;;;;1.60;1.30;;;12.00;98.00;;;;;;5048165;28;20864;-69
2021/05/28 00:54:54;;;;;;;1.30;1.20;;;12.00;98.00;;;;;;5050166;28;20491;-70
2021/05/28 00:57:21;;;;;;;1.70;1.40;;;12.10;98.00;;;;;;5050456;28;20518;-71
2021/05/28 00:59:49;;;;;;;1.40;1.17;;;11.90;98.00;;;;;;5047883;28;20971;-69
2021/05/28 01:02:16;;;;;;;1.40;1.27;;;11.80;98.00;;;;;;5050307;28;20958;-70
2021/05/28 01:04:43;;;;;;;1.20;1.00;;;11.80;98.00;;;;;;5048194;28;20456;-70
2021/05/28 01:07:10;;;;;;;1.40;1.03;;;11.90;98.00;;;;;;5050160;28;20501;-70
2021/05/28 01:09:36;;;;;;;3.10;1.40;;;11.80;98.00;;;;;;5046863;28;20527;-70
2021/05/28 01:12:03;;;;;;;1.20;1.00;;;11.70;98.00;;;;;;5053255;28;20492;-70
2021/05/28 01:14:30;;;;;;;1.20;1.10;;;11.70;98.00;;;;;;5051618;28;20483;-70
2021/05/28 01:16:56;;;;;;;1.30;1.20;;;11.70;98.00;;;;;;5053775;28;20494;-69
2021/05/28 01:19:25;;;;;;;1.70;1.53;;;11.80;98.00;;;;;;5051730;28;20484;-69
2021/05/28 01:21:53;;;;;;;2.20;1.33;;;11.80;98.00;;;;;;5053789;28;20450;-70
2021/05/28 01:24:20;;;;;;;1.20;1.00;;;11.80;98.00;;;;;;5051802;28;20458;-69
2021/05/28 01:26:47;;;;;;;1.20;1.10;;;11.80;98.00;;;;;;5053863;28;20866;-69
2021/05/28 01:29:14;;;;;;;1.20;1.10;;;11.70;98.00;;;;;;5051719;28;20947;-69
2021/05/28 01:31:42;;;;;;;1.20;1.00;;;11.70;98.00;;;;;;5053704;28;20456;-69
2021/05/28 01:34:08;;;;;;;1.20;1.10;;;11.60;98.00;;;;;;5051703;28;20984;-69
2021/05/28 01:36:34;;;;;;;1.93;1.20;;;11.60;98.00;;;;;;5053568;28;20500;-70
2021/05/28 01:39:01;;;;;;;1.20;1.00;;;11.60;98.00;;;;;;5051320;28;20547;-70
2021/05/28 01:41:29;;;;;;;1.20;1.00;;;11.70;98.00;;;;;;5053334;28;20552;-69
2021/05/28 01:43:56;;;;;;;1.20;1.00;;;11.80;98.00;;;;;;5051345;28;20543;-69
2021/05/28 01:46:23;;;;;;;1.30;1.10;;;11.70;98.00;;;;;;5053157;28;20459;-69
2021/05/28 01:48:51;;;;;;;1.20;1.00;;;11.60;98.00;;;;;;5051011;28;20452;-69
2021/05/28 01:51:18;;;;;;;1.30;1.00;;;11.60;98.00;;;;;;5052912;28;20503;-70
2021/05/28 01:53:45;;;;;;;1.20;1.00;;;11.60;98.00;;;;;;5051247;28;20466;-70
2021/05/28 01:56:11;;;;;;;1.30;1.00;;;11.70;98.00;;;;;;5053021;28;20490;-69
2021/05/28 01:58:38;;;;;;;1.20;1.10;;;11.80;98.00;;;;;;5050933;28;20524;-69
2021/05/28 02:01:05;;;;;;;1.20;0.90;;;11.80;98.00;;;;;;5052995;28;20446;-69
2021/05/28 02:03:31;;;;;;;1.30;1.00;;;11.70;98.00;;;;;;5050826;28;20452;-70
2021/05/28 02:05:58;;;;;;;1.60;1.40;;;11.70;98.00;;;;;;5052949;28;20498;-69
2021/05/28 02:08:24;;;;;;;1.20;1.00;;;11.90;98.00;;;;;;5050780;28;20454;-69
2021/05/28 02:10:51;;;;;;;1.20;1.00;;;12.00;98.00;;;;;;5051602;28;20857;-70
2021/05/28 02:13:17;;;;;;;1.20;1.00;;;11.80;98.00;;;;;;5050736;28;20939;-69
2021/05/28 02:15:45;;;;;;;1.30;1.30;;;11.80;98.00;;;;;;5052632;28;20853;-70
2021/05/28 02:18:11;;;;;;;1.30;1.20;;;11.80;98.00;;;;;;5050696;28;20485;-70
2021/05/28 02:20:37;;;;;;;1.37;1.30;;;11.70;98.00;;;;;;5052548;28;20457;-69
2021/05/28 02:23:04;;;;;;;1.40;1.10;;;11.60;98.00;;;;;;5049885;28;20457;-70
2021/05/28 02:25:31;;;;;;;1.20;1.10;;;11.50;98.00;;;;;;5052460;28;20455;-69
2021/05/28 02:27:57;;;;;;;1.20;1.03;;;11.50;98.00;;;;;;5050434;28;20477;-69
2021/05/28 02:30:24;;;;;;;1.20;1.00;;;11.70;98.00;;;;;;5052494;28;20460;-70
2021/05/28 02:32:51;;;;;;;1.30;1.00;;;11.70;98.00;;;;;;5050374;28;20556;-70
2021/05/28 02:35:18;;;;;;;1.30;1.10;;;11.70;98.00;;;;;;5052259;28;20462;-70
2021/05/28 02:37:44;;;;;;;1.20;0.90;;;11.80;98.00;;;;;;5050179;28;20493;-70
2021/05/28 02:40:12;;;;;;;1.20;1.03;;;11.80;98.00;;;;;;5052353;28;20873;-70
2021/05/28 02:42:39;;;;;;;1.30;1.10;;;11.80;98.00;;;;;;5050227;28;20458;-69
2021/05/28 02:45:08;;;;;;;5.00;1.20;;;11.80;98.00;;;;;;5052501;28;20460;-69
2021/05/28 02:47:34;;;;;;;1.37;1.20;;;11.80;98.00;;;;;;5052060;28;20462;-70
2021/05/28 02:50:02;;;;;;;1.20;1.00;;;11.70;98.00;;;;;;5051192;28;20955;-69
2021/05/28 02:52:29;;;;;;;1.20;0.90;;;11.50;98.00;;;;;;5052376;28;20459;-70
2021/05/28 02:54:56;;;;;;;1.30;1.03;;;11.50;98.00;;;;;;5050219;28;20993;-69
2021/05/28 02:57:22;;;;;;;1.67;1.10;;;11.40;98.00;;;;;;5051970;28;20510;-69
2021/05/28 02:59:49;;;;;;;1.33;1.10;;;11.40;98.00;;;;;;5049858;28;20541;-71
2021/05/28 03:02:17;;;;;;;1.20;0.93;;;11.30;98.00;;;;;;5052080;28;20817;-69
2021/05/28 03:04:44;;;;;;;1.37;1.00;;;11.40;98.00;;;;;;5049936;28;20955;-70
2021/05/28 03:07:11;;;;;;;1.20;0.93;;;11.40;98.00;;;;;;5050557;28;20454;-69
2021/05/28 03:09:38;;;;;;;1.20;1.00;;;11.50;98.00;;;;;;5049382;28;20998;-70
2021/05/28 03:12:05;;;;;;;1.20;1.00;;;11.50;98.00;;;;;;5051626;28;20464;-69
2021/05/28 03:14:31;;;;;;;1.20;1.10;;;11.80;98.00;;;;;;5049531;28;20459;-70
2021/05/28 03:16:58;;;;;;;1.20;0.90;;;12.00;98.00;;;;;;5051467;28;20838;-69
2021/05/28 03:19:28;;;;;;;1.37;1.20;;;12.00;98.00;;;;;;5049712;28;20643;-70
2021/05/28 03:24:39;;;;;;;1.30;1.00;;;11.70;98.00;;;;;;5049357;28;20448;-69
2021/05/28 03:27:06;;;;;;;1.40;1.10;;;11.70;98.00;;;;;;5051663;28;20496;-69
2021/05/28 03:29:33;;;;;;;1.30;1.00;;;11.70;98.00;;;;;;5050426;28;20460;-70
2021/05/28 03:31:59;;;;;;;1.20;1.00;;;11.60;98.00;;;;;;5051756;28;20494;-69
2021/05/28 03:34:26;;;;;;;1.73;1.10;;;11.50;98.00;;;;;;5050226;28;20488;-70
2021/05/28 03:36:52;;;;;;;2.53;1.33;;;11.40;98.00;;;;;;5050780;28;20967;-69
2021/05/28 03:39:19;;;;;;;1.30;0.90;;;11.30;98.00;;;;;;5048813;28;20496;-69
2021/05/28 03:41:47;;;;;;;1.20;0.90;;;11.20;98.00;;;;;;5051202;28;20832;-69
2021/05/28 03:44:14;;;;;;;1.40;1.00;;;11.20;98.00;;;;;;5048985;28;20461;-70
2021/05/28 03:46:40;;;;;;;1.87;1.00;;;11.30;98.00;;;;;;5051079;28;20727;-71
2021/05/28 03:49:07;;;;;;;1.20;1.00;;;11.40;98.00;;;;;;5049147;28;20562;-71
2021/05/28 03:51:34;;;;;;;1.30;1.10;;;11.60;98.00;;;;;;5050977;28;20497;-69
2021/05/28 03:54:01;;;;;;;1.20;1.10;;;11.70;98.00;;;;;;5049041;28;20461;-69
2021/05/28 03:56:27;;;;;;;1.20;1.00;;;11.60;98.00;;;;;;5051001;28;20914;-70
2021/05/28 03:58:54;;;;;;;1.20;1.20;;;11.60;98.00;;;;;;5048772;28;20915;-69
2021/05/28 04:01:23;;;;;;;1.90;1.20;;;11.60;98.00;;;;;;5051076;28;20492;-70
2021/05/28 04:03:50;;;;;;;1.60;1.27;;;11.70;98.00;;;;;;5048812;28;21047;-69
2021/05/28 04:06:17;;;;;;;1.20;1.00;;;11.60;98.00;;;;;;5051165;28;20496;-70
2021/05/28 04:08:43;;;;;;;1.20;1.00;;;11.60;98.00;;;;;;5048984;28;20981;-69
2021/05/28 04:11:11;;;;;;;1.30;1.30;;;11.50;98.00;;;;;;5051015;28;20501;-69
2021/05/28 04:13:38;;;;;;;1.40;1.00;;;11.60;98.00;;;;;;5048512;28;20959;-69
2021/05/28 04:16:06;;;;;;;1.30;1.00;;;11.70;98.00;;;;;;5050626;28;20531;-69
2021/05/28 04:18:32;;;;;;;1.20;1.00;;;11.60;98.00;;;;;;5047311;28;20485;-69
2021/05/28 04:20:59;;;;;;;1.20;1.00;;;11.60;98.00;;;;;;5050663;28;20554;-70
2021/05/28 04:23:25;;;;;;;1.30;1.00;;;11.50;98.00;;;;;;5048487;28;20467;-70
2021/05/28 04:25:52;;;;;;;1.20;0.90;;;11.40;98.00;;;;;;5050561;28;20491;-70
2021/05/28 04:28:18;;;;;;;1.20;1.00;;;11.30;98.00;;;;;;5047386;28;20493;-69
2021/05/28 04:30:45;;;;;;;1.40;1.03;;;11.20;98.00;;;;;;5050658;28;20934;-69
2021/05/28 04:33:13;;;;;;;1.20;1.00;;;11.20;98.00;;;;;;5048648;28;20457;-70
2021/05/28 04:35:39;;;;;;;1.30;1.10;;;11.20;98.00;;;;;;5050613;28;20454;-69
2021/05/28 04:38:06;;;;;;;1.20;1.00;;;11.30;98.00;;;;;;5047027;28;20965;-69
2021/05/28 04:40:33;;;;;;;1.70;1.10;;;11.30;98.00;;;;;;5050500;28;21116;-69
2021/05/28 04:43:00;;;;;;;1.20;1.00;;;11.30;98.00;;;;;;5048489;28;20488;-71
2021/05/28 04:45:27;;;;;;;1.20;1.00;;;11.40;98.00;;;;;;5050991;28;20453;-71
2021/05/28 04:47:54;;;;;;;1.30;1.00;;;11.40;98.00;;;;;;5052361;28;20457;-71
2021/05/28 04:50:22;;;;;;;1.80;0.97;;;11.40;98.00;;;;;;5054373;28;20464;-71
2021/05/28 04:52:48;;;;;;;1.67;1.10;;;11.40;98.00;;;;;;5052826;28;20458;-72
2021/05/28 04:55:15;;;;;;;2.17;1.10;;;11.40;98.00;;;;;;5053001;28;20935;-69
2021/05/28 04:57:42;;;;;;;1.20;1.00;;;11.60;98.00;;;;;;5054120;28;20548;-69
2021/05/28 05:00:09;;;;;;;1.30;1.10;;;11.70;98.00;;;;;;5050904;28;20540;-69
2021/05/28 05:02:36;;;;;;;1.20;1.00;;;11.70;98.00;;;;;;5054007;28;20488;-69
2021/05/28 05:05:03;;;;;;;1.20;1.20;;;11.70;98.00;;;;;;5051901;28;20467;-70
2021/05/28 05:07:30;;;;;;;1.20;1.03;;;11.80;98.00;;;;;;5054162;28;20839;-69
2021/05/28 05:09:57;;;;;;;1.20;1.13;;;11.80;98.00;;;;;;5051729;28;20505;-69
2021/05/28 05:12:23;;;;;;;1.43;1.17;;;11.80;98.00;;;;;;5053965;28;20535;-69
2021/05/28 05:14:51;;;;;;;1.20;1.00;;;11.80;98.00;;;;;;5051804;28;20461;-69
2021/05/28 05:17:19;;;;;;;1.70;1.13;;;11.70;98.00;;;;;;5053938;28;20505;-69
2021/05/28 05:19:45;;;;;;;1.27;1.10;;;11.90;98.00;;;;;;5052033;28;20546;-69
2021/05/28 05:22:11;;;;;;;1.80;1.30;;;12.20;98.00;;;;;;5053927;28;20455;-69
2021/05/28 05:24:39;;;;;;;1.20;1.03;;;12.40;98.00;;;;;;5051508;28;20493;-69
2021/05/28 05:27:06;;;;;;;2.23;1.27;;;12.50;98.00;;;;;;5053708;28;20461;-69
2021/05/28 05:29:33;;;;;;;1.30;1.20;;;12.60;98.00;;;;;;5051482;28;20532;-71
2021/05/28 05:32:00;;;;;;;1.20;1.10;;;12.70;98.00;;;;;;5053588;28;20459;-71
2021/05/28 05:34:26;;;;;;;1.90;1.20;;;12.60;98.00;;;;;;5051439;28;21033;-71
2021/05/28 05:36:53;;;;;;;1.80;1.23;;;12.80;98.00;;;;;;5053508;28;20996;-71
2021/05/28 05:39:21;;;;;;;1.30;1.13;;;12.90;98.00;;;;;;5051470;28;20488;-71
2021/05/28 05:41:49;;;;;;;1.97;1.43;;;13.00;98.00;;;;;;5053593;28;20460;-71
2021/05/28 05:44:15;;;;;;;1.53;1.10;;;13.00;98.00;;;;;;5051343;28;20471;-70
2021/05/28 05:46:42;;;;;;;1.50;1.43;;;12.80;98.00;;;;;;5053206;28;20724;-69
2021/05/28 05:49:08;;;;;;;1.20;1.00;;;13.00;98.00;;;;;;5051453;28;20459;-69
2021/05/28 05:51:35;;;;;;;1.30;1.27;;;13.00;98.00;;;;;;5053109;28;20463;-69
2021/05/28 05:54:01;;;;;;;2.27;1.13;;;13.10;98.00;;;;;;5051244;28;20453;-70
2021/05/28 05:56:28;;;;;;;1.20;0.93;;;13.20;98.00;;;;;;5052844;28;20961;-70
2021/05/28 05:58:56;;;;;;;1.30;1.13;;;13.30;98.00;;;;;;5048743;28;20486;-70
2021/05/28 06:01:23;;;;;;;1.20;1.00;;;13.40;98.00;;;;;;5051883;28;20464;-69
2021/05/28 06:03:49;;;;;;;1.30;1.10;;;13.50;98.00;;;;;;5050940;28;20464;-69
2021/05/28 06:06:16;;;;;;;1.47;1.00;;;13.50;98.00;;;;;;5052903;28;20455;-69
2021/05/28 06:08:42;;;;;;;1.30;1.10;;;13.50;98.00;;;;;;5050768;28;20470;-70
2021/05/28 06:11:08;;;;;;;1.50;1.10;;;13.50;98.00;;;;;;5052979;28;20461;-69
2021/05/28 06:13:35;;;;;;;1.40;1.20;;;13.60;98.00;;;;;;5050609;28;20496;-69
2021/05/28 06:16:02;;;;;;;1.20;1.10;;;13.60;98.00;;;;;;5052819;28;20451;-69
2021/05/28 06:18:29;;;;;;;1.30;1.10;;;13.60;98.00;;;;;;5050656;28;20535;-69
2021/05/28 06:20:55;;;;;;;1.20;1.03;;;13.60;98.00;;;;;;5052542;28;20531;-69
2021/05/28 06:23:22;;;;;;;1.53;1.23;;;13.70;98.00;;;;;;5050747;28;20836;-69
2021/05/28 06:25:48;;;;;;;1.43;1.30;;;13.60;98.00;;;;;;5051325;28;20501;-69
2021/05/28 06:28:15;;;;;;;1.20;1.00;;;13.50;98.00;;;;;;5050633;28;21011;-70
2021/05/28 06:30:42;;;;;;;1.57;1.17;;;13.50;98.00;;;;;;5052480;28;20882;-69
2021/05/28 06:33:09;;;;;;;1.30;1.10;;;13.60;98.00;;;;;;5050594;28;20463;-69
2021/05/28 06:35:39;;;;;;;1.30;1.10;;;13.50;98.00;;;;;;5052649;28;20955;-69
2021/05/28 06:38:08;;;;;;;1.20;1.00;;;13.60;98.00;;;;;;5050136;28;20526;-69
2021/05/28 06:40:35;;;;;;;1.20;1.00;;;13.60;98.00;;;;;;5052251;28;20468;-69
2021/05/28 06:43:01;;;;;;;2.23;1.50;;;13.70;98.00;;;;;;5050174;28;20968;-69
2021/05/28 06:45:28;;;;;;;1.20;1.03;;;13.60;98.00;;;;;;5052393;28;20462;-68
2021/05/28 06:47:55;;;;;;;1.30;1.30;;;13.50;98.00;;;;;;5052268;28;20908;-69
2021/05/28 06:50:22;;;;;;;1.40;1.20;;;13.40;98.00;;;;;;5049826;28;20477;-70
2021/05/28 06:52:49;;;;;;;1.20;1.00;;;13.40;98.00;;;;;;5052118;28;20478;-70
2021/05/28 06:55:15;;;;;;;1.77;1.20;;;13.60;98.00;;;;;;5050039;28;20964;-70
2021/05/28 06:57:42;;;;;;;1.43;1.30;;;13.80;98.00;;;;;;5051902;28;20469;-68
2021/05/28 07:00:11;;;;;;;1.20;1.00;;;13.70;98.00;;;;;;5049848;28;20453;-70
2021/05/28 07:02:37;;;;;;;1.40;1.20;;;13.60;98.00;;;;;;5052022;28;20494;-69
2021/05/28 07:05:05;;;;;;;1.37;1.30;;;13.70;98.00;;;;;;5049351;28;20840;-70
2021/05/28 07:07:34;;;;;;;1.30;1.10;;;13.90;98.00;;;;;;5051774;28;20486;-71
2021/05/28 07:10:00;;;;;;;1.20;0.90;;;13.90;98.00;;;;;;5049151;28;20458;-70
2021/05/28 07:12:27;;;;;;;2.13;1.50;;;14.10;98.00;;;;;;5051535;28;21128;-70
2021/05/28 07:14:53;;;;;;;2.33;1.30;;;14.00;98.00;;;;;;5049436;28;20494;-70
2021/05/28 07:17:19;;;;;;;1.20;1.10;;;13.80;98.00;;;;;;5051638;28;20477;-71
2021/05/28 07:19:46;;;;;;;1.37;1.17;;;13.90;98.00;;;;;;5049427;28;20482;-73
2021/05/28 07:22:12;;;;;;;1.20;1.00;;;14.20;98.00;;;;;;5051653;28;20462;-71
2021/05/28 07:24:40;;;;;;;1.50;1.10;;;14.70;98.00;;;;;;5048050;28;20463;-71
2021/05/28 07:27:08;;;;;;;1.20;1.10;;;15.00;98.00;;;;;;5048418;28;20455;-70
2021/05/28 07:29:35;;;;;;;4.30;1.77;;;15.60;98.00;;;;;;5048794;28;20861;-71
2021/05/28 07:32:01;;;;;;;1.20;1.03;;;16.00;98.00;;;;;;5050927;28;20461;-69
2021/05/28 07:34:28;;;;;;;1.20;1.00;;;16.10;98.00;;;;;;5047211;28;20473;-69
2021/05/28 07:36:55;;;;;;;1.47;1.13;;;16.10;98.00;;;;;;5050555;28;21029;-71
2021/05/28 07:39:21;;;;;;;1.60;1.50;;;15.90;98.00;;;;;;5048180;28;20488;-71
2021/05/28 07:41:49;;;;;;;1.30;1.20;;;15.60;98.00;;;;;;5050656;28;20453;-71
2021/05/28 07:44:16;;;;;;;1.20;1.10;;;15.40;98.00;;;;;;5048398;28;20952;-70
2021/05/28 07:46:44;;;;;;;1.87;1.27;;;15.50;98.00;;;;;;5050518;28;20538;-70
2021/05/28 07:49:12;;;;;;;1.20;1.00;;;15.30;98.00;;;;;;5048620;28;20455;-69
2021/05/28 07:51:39;;;;;;;1.30;1.23;;;15.10;98.00;;;;;;5050268;28;20484;-71
2021/05/28 07:54:10;;;;;;;1.20;1.00;;;15.00;98.00;;;;;;5048494;28;20480;-70
2021/05/28 07:56:37;;;;;;;1.20;1.10;;;15.00;98.00;;;;;;5049354;28;20896;-71
2021/05/28 07:59:05;;;;;;;1.93;1.20;;;15.10;98.00;;;;;;5048638;28;20908;-73
2021/05/28 08:01:32;;;;;;;1.20;1.10;;;15.20;98.00;;;;;;5050528;28;20858;-72
2021/05/28 08:03:58;;;;;;;1.93;1.67;;;15.30;98.00;;;;;;5048120;28;20470;-71
2021/05/28 08:06:25;;;;;;;1.60;1.47;;;15.50;98.00;;;;;;5050717;28;20522;-72
2021/05/28 08:08:52;;;;;;;1.20;1.10;;;15.60;98.00;;;;;;5048399;28;20524;-71
2021/05/28 08:11:19;;;;;;;1.50;1.20;;;15.70;98.00;;;;;;5050243;28;20456;-73
2021/05/28 08:13:45;;;;;;;1.40;1.07;;;15.60;98.00;;;;;;5048549;28;20468;-72
2021/05/28 08:16:13;;;;;;;2.40;1.40;;;15.50;98.00;;;;;;5050599;28;20499;-72
2021/05/28 08:18:39;;;;;;;4.17;1.87;;;15.40;98.00;;;;;;5048631;28;20521;-71
2021/05/28 08:21:06;;;;;;;1.40;1.20;;;15.40;98.00;;;;;;5050079;28;20825;-72
2021/05/28 08:23:34;;;;;;;1.63;1.20;;;15.40;98.00;;;;;;5048372;28;20466;-72
2021/05/28 08:26:02;;;;;;;1.20;1.03;;;15.60;98.00;;;;;;5050648;28;20883;-72
2021/05/28 08:28:30;;;;;;;1.83;1.20;;;15.80;98.00;;;;;;5048316;28;20456;-72
2021/05/28 08:30:56;;;;;;;1.20;1.00;;;15.60;98.00;;;;;;5050730;28;20551;-72
2021/05/28 08:33:23;;;;;;;1.20;1.10;;;15.60;98.00;;;;;;5048481;28;20468;-72
2021/05/28 08:35:50;;;;;;;1.60;1.20;;;15.70;98.00;;;;;;5049265;28;20951;-72
2021/05/28 08:38:16;;;;;;;1.60;1.50;;;15.60;98.00;;;;;;5048331;28;20519;-72
2021/05/28 08:40:43;;;;;;;1.20;1.00;;;15.60;98.00;;;;;;5050371;28;20675;-72
2021/05/28 08:43:09;;;;;;;1.50;1.20;;;15.60;98.00;;;;;;5050011;28;20490;-72
2021/05/28 08:45:38;;;;;;;1.60;1.27;;;15.70;98.00;;;;;;5049564;28;20532;-71
2021/05/28 08:48:07;;;;;;;2.23;1.47;;;15.70;98.00;;;;;;5049057;28;20454;-72
2021/05/28 08:50:35;;;;;;;1.30;1.10;;;15.70;98.00;;;;;;5047636;28;20522;-71
2021/05/28 08:53:02;;;;;;;1.20;1.03;;;15.60;98.00;;;;;;5049290;28;20536;-72
2021/05/28 08:55:28;;;;;;;1.73;1.27;;;15.50;98.00;;;;;;5048397;28;20451;-71
2021/05/28 08:57:55;;;;;;;1.50;1.27;;;15.40;98.00;;;;;;5050311;28;20548;-72
2021/05/28 09:00:24;;;;;;;1.20;1.00;;;15.50;98.00;;;;;;5048653;28;20507;-73
2021/05/28 09:02:51;;;;;;;1.20;1.00;;;15.50;98.00;;;;;;5050774;28;20954;-73
2021/05/28 09:05:21;;;;;;;1.30;1.20;;;15.60;98.00;;;;;;5048687;28;20465;-72
2021/05/28 09:07:57;;;;;;;1.30;1.10;;;15.70;98.00;;;;;;5051093;28;20512;-71
2021/05/28 09:10:34;;;;;;;1.30;1.10;;;15.80;98.00;;;;;;5047926;28;20810;-73
2021/05/28 09:13:11;;;;;;;1.20;1.10;;;16.10;96.90;;;;;;5050885;28;20511;-71
2021/05/28 09:15:38;;;;;;;1.20;1.00;;;16.30;96.00;;;;;;5047879;28;20966;-72
2021/05/28 09:18:05;;;;;;;1.40;1.17;;;16.40;95.20;;;;;;5050804;28;20864;-72
2021/05/28 09:20:32;;;;;;;1.20;1.00;;;16.60;94.80;;;;;;5047764;28;20461;-72
2021/05/28 09:23:17;;;;;;;1.20;1.00;;;16.80;95.40;;;;;;5050784;28;20507;-72
2021/05/28 09:26:08;;;;;;;1.20;1.13;;;16.90;94.20;;;;;;5050869;28;21111;-72
2021/05/28 09:28:43;;;;;;;1.20;1.20;;;16.90;94.80;;;;;;5047708;28;21107;-72
2021/05/28 09:31:13;;;;;;;1.70;1.13;;;17.00;91.30;;;;;;5050617;28;20499;-72
2021/05/28 09:33:43;;;;;;;1.50;1.20;;;17.00;93.60;;;;;;5051210;28;20453;-72
2021/05/28 09:36:12;;;;;;;1.30;1.20;;;17.10;92.00;;;;;;5053632;28;20775;-71
2021/05/28 09:38:40;;;;;;;1.30;1.10;;;17.20;89.30;;;;;;5050788;28;20529;-71
2021/05/28 09:41:07;;;;;;;1.20;1.00;;;17.30;90.10;;;;;;5054000;28;20453;-73
2021/05/28 09:43:34;;;;;;;1.20;1.00;;;17.40;90.40;;;;;;5051468;28;20552;-71
2021/05/28 09:46:10;;;;;;;1.30;1.30;;;17.50;90.30;;;;;;5054260;28;20450;-71
2021/05/28 09:48:37;;;;;;;1.20;1.10;;;17.70;89.20;;;;;;5051691;28;20948;-72
2021/05/28 09:51:06;;;;;;;1.70;1.20;;;17.70;91.60;;;;;;5054024;28;20477;-71
2021/05/28 09:53:36;;;;;;;1.93;1.40;;;17.70;89.70;;;;;;5051710;28;20841;-71
2021/05/28 09:56:27;;;;;;;1.57;1.10;;;17.70;91.10;;;;;;5053936;28;20458;-72
2021/05/28 09:58:59;;;;;;;1.40;1.30;;;17.70;89.60;;;;;;5051288;28;20482;-71
2021/05/28 10:01:26;;;;;;;1.63;1.10;;;17.60;90.60;;;;;;5053741;28;20461;-72
2021/05/28 10:04:03;;;;;;;1.40;1.10;;;17.50;89.50;;;;;;5050328;28;20547;-71
2021/05/28 10:06:31;;;;;;;1.60;1.23;;;17.40;86.60;;;;;;5053625;28;20527;-71
2021/05/28 10:09:08;;;;;;;1.40;1.10;;;17.30;90.20;;;;;;5051242;28;20492;-71
2021/05/28 10:11:38;;;;;;;2.03;1.20;;;17.50;92.90;;;;;;5053459;28;20453;-71
2021/05/28 10:14:05;;;;;;;1.40;1.23;;;17.50;89.10;;;;;;5050652;28;20523;-72
2021/05/28 10:16:32;;;;;;;1.20;1.10;;;17.30;89.30;;;;;;5053151;28;20856;-72
2021/05/28 10:18:58;;;;;;;1.70;1.50;;;17.40;91.00;;;;;;5050614;28;20824;-71
2021/05/28 10:21:29;;;;;;;1.40;1.40;;;17.60;88.90;;;;;;5053239;28;20453;-71
2021/05/28 10:23:56;;;;;;;1.30;1.10;;;17.90;88.00;;;;;;5049451;28;20454;-71
2021/05/28 10:26:26;;;;;;;1.20;1.20;;;18.00;88.90;;;;;;5053609;28;20453;-71
2021/05/28 10:28:53;;;;;;;1.67;1.47;;;18.00;88.80;;;;;;5051157;28;20454;-73
2021/05/28 10:31:20;;;;;;;1.27;1.13;;;18.30;87.20;;;;;;5053390;28;20450;-72
2021/05/28 10:33:49;;;;;;;1.20;1.03;;;18.60;86.50;;;;;;5050501;28;20960;-71
2021/05/28 10:36:48;;;;;;;1.93;1.50;;;18.80;85.90;;;;;;5053389;28;20457;-71
2021/05/28 10:39:17;;;;;;;1.77;1.50;;;18.80;86.60;;;;;;5050993;28;20517;-71
2021/05/28 10:41:47;;;;;;;1.60;1.10;;;18.50;88.40;;;;;;5053145;28;20498;-72
2021/05/28 10:44:16;;;;;;;1.20;1.10;;;18.20;89.70;;;;;;5049838;28;20457;-72
2021/05/28 10:46:55;;;;;;;1.20;1.00;;;18.10;88.90;;;;;;5053038;28;20501;-71
2021/05/28 10:49:38;;;;;;;1.30;1.00;;;18.00;86.30;;;;;;5049003;28;20454;-72
2021/05/28 10:52:06;;;;;;;2.00;1.27;;;18.00;85.70;;;;;;5052927;28;20462;-72
2021/05/28 10:54:44;;;;;;;1.20;1.00;;;18.00;85.30;;;;;;5050384;28;20944;-72
2021/05/28 10:57:33;;;;;;;1.20;1.10;;;17.90;85.80;;;;;;5052965;28;20450;-72
2021/05/28 11:00:05;;;;;;;3.20;1.47;;;17.90;87.90;;;;;;5046932;28;20488;-72
2021/05/28 11:02:52;;;;;;;1.20;1.10;;;17.90;85.10;;;;;;5052705;28;20438;-72
2021/05/28 11:05:42;;;;;;;3.40;1.37;;;17.90;84.30;;;;;;5050448;28;20454;-72
2021/05/28 11:08:44;;;;;;;1.40;1.37;;;17.90;84.80;;;;;;5052502;28;20948;-72
2021/05/28 11:11:56;;;;;;;1.93;1.10;;;17.70;86.60;;;;;;5052609;28;20463;-73
2021/05/28 11:14:23;;;;;;;1.20;1.00;;;17.80;87.90;;;;;;5045719;28;20544;-71
2021/05/28 11:17:22;;;;;;;1.30;1.00;;;17.80;85.00;;;;;;5052511;28;20508;-72
2021/05/28 11:19:57;;;;;;;1.20;1.17;;;17.60;87.80;;;;;;5049140;28;20517;-73
2021/05/28 11:22:36;;;;;;;1.20;1.10;;;17.60;88.20;;;;;;5052374;28;21113;-71
2021/05/28 11:25:08;;;;;;;1.23;1.17;;;18.30;85.20;;;;;;5050107;28;20561;-73
2021/05/28 11:27:40;;;;;;;1.20;1.10;;;18.70;83.40;;;;;;5052557;28;20466;-71
2021/05/28 11:30:23;;;;;;;1.93;1.10;;;18.80;83.00;;;;;;5049614;28;20540;-73
2021/05/28 11:32:49;;;;;;;2.03;1.43;;;19.10;83.10;;;;;;5050971;28;20453;-73
2021/05/28 11:35:19;;;;;;;3.80;1.67;;;19.10;81.90;;;;;;5050212;28;20473;-74
2021/05/28 11:37:50;;;;;;;1.60;1.10;;;19.00;79.60;;;;;;5052182;28;20458;-73
2021/05/28 11:40:19;;;;;;;1.20;1.00;;;19.00;79.20;;;;;;5049435;28;20559;-74
2021/05/28 11:42:46;;;;;;;1.50;1.10;;;18.60;79.10;;;;;;5052007;28;20992;-74
2021/05/28 11:45:16;;;;;;;1.27;1.13;;;18.50;79.60;;;;;;5049241;28;20453;-74
2021/05/28 11:47:43;;;;;;;1.20;1.17;;;18.30;80.00;;;;;;5051695;28;20469;-73
2021/05/28 11:50:13;;;;;;;1.20;1.10;;;18.60;79.40;;;;;;5049272;28;20508;-73
2021/05/28 11:52:40;;;;;;;1.60;1.10;;;19.40;78.30;;;;;;5052021;28;20454;-74
2021/05/28 11:55:11;;;;;;;1.20;1.10;;;20.00;75.20;;;;;;5048572;28;20450;-73
2021/05/28 11:57:39;;;;;;;1.20;1.10;;;20.20;72.70;;;;;;5052196;28;20458;-73
2021/05/28 12:00:08;;;;;;;1.20;1.10;;;20.60;72.50;;;;;;5048614;28;20481;-74
2021/05/28 12:02:47;;;;;;;1.20;1.10;;;21.00;73.20;;;;;;5051768;28;20489;-73
2021/05/28 12:05:31;;;;;;;1.30;1.20;;;21.40;71.30;;;;;;5049439;28;20453;-73
2021/05/28 12:08:00;;;;;;;1.67;1.20;;;21.70;70.90;;;;;;5051793;28;20453;-74
2021/05/28 12:10:28;;;;;;;1.50;1.30;;;22.00;71.30;;;;;;5049796;28;20944;-74
2021/05/28 12:13:00;;;;;;;1.50;1.27;;;22.40;70.60;;;;;;5052511;28;20531;-74
2021/05/28 12:15:32;;;;;;;1.50;1.30;;;22.50;69.80;;;;;;5049816;28;20515;-75
2021/05/28 12:18:01;;;;;;;1.27;1.10;;;21.90;68.40;;;;;;5051886;28;20527;-73
2021/05/28 12:20:30;;;;;;;1.20;1.10;;;21.50;72.00;;;;;;5049077;28;20916;-73
2021/05/28 12:23:06;;;;;;;1.93;1.20;;;21.00;73.20;;;;;;5051680;28;20857;-73
2021/05/28 12:25:36;;;;;;;1.40;1.13;;;20.40;71.80;;;;;;5048641;28;20489;-73
2021/05/28 12:28:11;;;;;;;1.20;1.00;;;20.30;81.30;;;;;;5051411;28;20476;-75
2021/05/28 12:30:39;;;;;;;1.93;1.47;;;20.30;77.60;;;;;;5048851;28;20500;-75
2021/05/28 12:33:06;;;;;;;1.30;1.27;;;20.20;76.80;;;;;;5051261;28;20548;-74
2021/05/28 12:35:35;;;;;;;1.20;1.10;;;19.90;77.20;;;;;;5048808;28;20454;-74
2021/05/28 12:38:04;;;;;;;1.77;1.20;;;19.70;79.50;;;;;;5051269;28;20493;-76
2021/05/28 12:40:53;;;;;;;1.20;1.10;;;19.50;79.30;;;;;;5048208;28;20481;-75
2021/05/28 12:43:23;;;;;;;4.13;1.30;;;19.50;80.00;;;;;;5051220;28;20486;-75
2021/05/28 12:45:50;;;;;;;1.30;1.20;;;19.50;76.80;;;;;;5047189;28;20458;-75
2021/05/28 12:48:17;;;;;;;1.20;1.10;;;19.40;77.50;;;;;;5051085;28;20450;-75
2021/05/28 12:50:45;;;;;;;1.47;1.20;;;19.60;76.40;;;;;;5047795;28;20466;-75
2021/05/28 12:53:16;;;;;;;1.20;1.10;;;20.40;74.60;;;;;;5051031;28;20462;-74
2021/05/28 12:55:49;;;;;;;1.40;1.20;;;21.10;71.50;;;;;;5048315;28;20491;-75
2021/05/28 12:58:29;;;;;;;1.30;1.10;;;21.50;69.50;;;;;;5050490;28;20487;-75